Time;durP1;ratioP1;P1;durP2;ratioP2;P2;SDS_P1;SDS_P2;PMS_P1;PMS_P2;Temp;Humidity;BMP_temperature;BMP_pressure;BME280_temperature;BME280_humidity;BME280_pressure;Samples;Min_cycle;Max_cycle;Signal;HPM_P1;HPM_P2
2021/09/12 07:36:28;;;;;;;;;;;;;;;;;;;;;
2021/09/12 07:53:54;;;;;;;10.60;9.50;;;22.90;71.20;;;;;;5280196;23;20058;-94
2021/09/12 07:56:42;;;;;;;11.55;10.35;;;22.90;71.20;;;;;;5476977;23;20918;-95
2021/09/12 07:59:13;;;;;;;11.15;9.95;;;23.10;71.00;;;;;;5067152;23;20051;-96
2021/09/12 08:45:53;;;;;;;11.70;9.10;;;23.80;63.60;;;;;;4975629;28;20058;-93
2021/09/12 08:51:44;;;;;;;9.80;8.35;;;23.80;62.60;;;;;;4939551;29;20049;-94
2021/09/12 08:54:19;;;;;;;9.95;7.78;;;23.90;63.50;;;;;;4935816;29;20059;-95
2021/09/12 09:03:53;;;;;;;11.18;9.60;;;24.00;62.10;;;;;;4890587;29;20060;-94
2021/09/12 09:16:34;;;;;;;8.50;6.43;;;24.20;56.30;;;;;;4958424;29;20135;-95
2021/09/12 09:27:07;;;;;;;6.90;5.13;;;24.50;56.50;;;;;;4976234;28;20078;-96
2021/09/12 09:32:46;;;;;;;7.28;4.90;;;24.80;56.50;;;;;;4975672;28;20058;-94
2021/09/12 09:38:46;;;;;;;5.25;4.47;;;25.10;55.80;;;;;;4976044;29;20104;-95
2021/09/12 09:41:18;;;;;;;6.03;4.95;;;25.20;55.60;;;;;;4974553;28;20051;-94
2021/09/12 09:44:02;;;;;;;5.75;5.15;;;25.30;54.30;;;;;;4975821;29;20011;-94
2021/09/12 09:46:38;;;;;;;6.40;5.38;;;25.40;54.10;;;;;;4976170;29;20043;-95
2021/09/12 09:49:29;;;;;;;7.50;5.28;;;25.50;54.70;;;;;;4973758;28;20039;-95
2021/09/12 09:52:20;;;;;;;7.22;5.20;;;25.70;54.30;;;;;;4976281;28;20036;-95
2021/09/12 09:58:10;;;;;;;6.28;4.53;;;25.90;53.70;;;;;;4977597;28;20043;-95
2021/09/12 10:00:37;;;;;;;6.53;5.10;;;25.90;53.40;;;;;;4975589;29;20031;-96
2021/09/12 10:03:41;;;;;;;6.38;5.50;;;26.00;53.30;;;;;;4976986;29;20031;-95
2021/09/12 10:06:19;;;;;;;5.72;5.10;;;26.10;53.30;;;;;;4977086;28;20054;-96
2021/09/12 10:08:48;;;;;;;5.30;4.68;;;26.10;53.00;;;;;;4980135;28;20032;-94
2021/09/12 10:20:14;;;;;;;6.38;4.88;;;26.40;52.60;;;;;;5232235;23;20075;-96
2021/09/12 10:22:53;;;;;;;4.78;4.28;;;26.50;52.40;;;;;;4958604;28;20048;-96
2021/09/12 10:25:38;;;;;;;6.20;5.15;;;26.60;52.50;;;;;;4940136;29;20028;-96
2021/09/12 11:01:54;;;;;;;5.32;4.30;;;27.10;50.10;;;;;;5313865;23;20062;-96
2021/09/12 11:38:38;;;;;;;5.13;3.30;;;27.30;48.00;;;;;;4986425;28;20121;-94
2021/09/12 11:41:07;;;;;;;5.68;3.67;;;27.40;47.90;;;;;;4969944;28;20134;-96
2021/09/12 11:43:55;;;;;;;4.97;4.47;;;27.40;48.10;;;;;;4966211;28;20027;-96
2021/09/12 11:46:33;;;;;;;4.65;4.10;;;27.40;46.40;;;;;;4950857;28;20034;-95
2021/09/12 13:57:23;;;;;;;3.80;3.47;;;34.40;38.80;;;;;;4961397;29;20036;-95
2021/09/12 14:07:32;;;;;;;4.28;3.88;;;35.00;38.00;;;;;;4972224;28;20047;-95
2021/09/12 14:10:02;;;;;;;5.78;4.25;;;35.10;37.20;;;;;;4945402;29;20130;-94
2021/09/12 14:12:38;;;;;;;5.32;4.30;;;35.40;38.50;;;;;;4942442;29;20031;-94
2021/09/12 14:15:07;;;;;;;4.65;4.25;;;35.50;38.10;;;;;;4925843;29;20054;-93
2021/09/12 14:18:55;;;;;;;5.18;4.45;;;35.80;37.80;;;;;;4941819;29;20031;-96
2021/09/12 14:21:24;;;;;;;4.63;4.18;;;36.00;36.40;;;;;;4915883;29;20043;-95
2021/09/12 14:24:14;;;;;;;5.20;4.13;;;36.30;37.40;;;;;;4951745;29;20028;-94
2021/09/12 14:45:14;;;;;;;4.47;4.07;;;36.20;36.70;;;;;;5199267;23;20047;-95
2021/09/12 14:47:44;;;;;;;5.05;4.55;;;36.20;34.40;;;;;;4961797;29;20035;-94
2021/09/12 14:51:16;;;;;;;;;;;;;;;;;;;;;
2021/09/12 14:54:15;;;;;;;4.88;4.18;;;36.10;35.30;;;;;;4947510;29;20131;-96
2021/09/12 14:57:20;;;;;;;5.40;4.90;;;36.00;35.30;;;;;;4947507;29;20041;-96
2021/09/12 15:03:01;;;;;;;8.98;4.90;;;35.50;35.50;;;;;;5099348;23;19917;-96
2021/09/12 15:05:42;;;;;;;7.72;4.60;;;35.30;35.60;;;;;;4939628;29;20055;-96
2021/09/12 15:08:55;;;;;;;;;;;;;;;;;;;;;
2021/09/12 15:11:38;;;;;;;4.78;4.03;;;35.20;36.60;;;;;;4938570;28;20039;-96
2021/09/12 15:14:57;;;;;;;5.60;4.55;;;35.00;36.80;;;;;;4958423;29;20529;-93
2021/09/12 15:17:54;;;;;;;4.30;3.90;;;34.80;36.80;;;;;;4939311;29;20086;-96
2021/09/12 15:20:20;;;;;;;5.28;4.40;;;34.50;36.80;;;;;;4924531;29;20048;-93
2021/09/12 15:23:15;;;;;;;4.25;3.85;;;34.30;37.10;;;;;;4935327;29;20035;-96
2021/09/12 15:29:09;;;;;;;5.05;4.63;;;33.80;37.70;;;;;;5002955;23;20143;-96
2021/09/12 15:34:19;;;;;;;5.07;4.57;;;33.10;37.80;;;;;;5509126;23;20059;-96
2021/09/12 15:36:44;;;;;;;5.55;4.72;;;32.80;37.90;;;;;;4941129;29;20038;-96
2021/09/12 15:39:11;;;;;;;7.22;4.57;;;32.50;38.30;;;;;;4964769;29;20023;-96
2021/09/12 15:45:00;;;;;;;4.65;4.15;;;31.90;38.60;;;;;;4958234;29;20115;-96
2021/09/12 15:47:26;;;;;;;6.28;4.70;;;31.50;38.80;;;;;;4940923;29;20028;-96
2021/09/12 15:49:52;;;;;;;6.30;4.95;;;31.00;39.10;;;;;;4958131;29;20027;-96
2021/09/12 15:52:18;;;;;;;4.97;4.40;;;30.40;39.40;;;;;;4941099;29;20490;-96
2021/09/12 15:54:43;;;;;;;5.72;5.10;;;29.90;39.60;;;;;;4941009;29;20027;-95
2021/09/12 15:57:09;;;;;;;5.88;4.70;;;29.40;39.70;;;;;;4941316;29;20122;-95
2021/09/12 15:59:36;;;;;;;6.95;5.05;;;29.00;39.80;;;;;;4941074;29;20122;-95
2021/09/12 16:02:02;;;;;;;5.93;5.25;;;28.60;40.20;;;;;;4941760;29;20035;-95
2021/09/12 16:04:29;;;;;;;5.10;4.60;;;28.20;40.70;;;;;;4941641;29;20027;-95
2021/09/12 16:06:55;;;;;;;5.20;4.50;;;27.90;41.10;;;;;;4940964;29;20030;-96
2021/09/12 16:09:22;;;;;;;5.25;4.43;;;27.50;41.60;;;;;;4940793;29;20131;-94
2021/09/12 16:11:48;;;;;;;4.68;4.28;;;27.20;42.10;;;;;;4940835;29;20418;-95
2021/09/12 16:14:14;;;;;;;5.45;4.95;;;26.90;42.60;;;;;;4940464;29;20118;-95
2021/09/12 16:16:40;;;;;;;5.20;4.65;;;26.60;43.10;;;;;;4940946;29;20031;-94
2021/09/12 16:19:06;;;;;;;6.53;4.78;;;26.30;43.50;;;;;;4957181;29;20086;-94
2021/09/12 16:21:31;;;;;;;5.10;4.60;;;26.00;44.00;;;;;;4941054;29;20027;-94
2021/09/12 16:23:57;;;;;;;6.55;5.18;;;25.70;44.70;;;;;;4940542;29;20382;-94
2021/09/12 16:26:23;;;;;;;8.95;6.88;;;25.50;45.40;;;;;;4940402;29;20031;-94
2021/09/12 16:28:49;;;;;;;7.40;6.57;;;25.20;46.00;;;;;;4940946;29;20118;-95
2021/09/12 16:31:15;;;;;;;10.07;7.53;;;25.00;46.60;;;;;;4940655;29;20486;-94
2021/09/12 16:33:41;;;;;;;9.48;7.20;;;24.80;47.20;;;;;;4940115;29;20074;-93
2021/09/12 16:36:07;;;;;;;8.45;6.43;;;24.60;47.90;;;;;;4957222;29;20038;-94
2021/09/12 16:38:33;;;;;;;9.98;7.90;;;24.40;48.50;;;;;;4940539;29;20032;-93
2021/09/12 16:40:59;;;;;;;11.80;8.25;;;24.20;49.10;;;;;;4940747;29;20384;-94
2021/09/12 16:43:26;;;;;;;11.52;7.32;;;24.00;49.70;;;;;;4940778;29;20023;-94
2021/09/12 16:46:07;;;;;;;8.13;7.35;;;23.90;50.30;;;;;;4940085;29;20038;-95
2021/09/12 16:48:32;;;;;;;9.70;7.55;;;23.70;50.90;;;;;;4957571;29;20027;-94
2021/09/12 16:50:58;;;;;;;12.70;7.55;;;23.50;51.40;;;;;;4940455;29;20123;-93
2021/09/12 16:53:24;;;;;;;8.35;6.30;;;23.40;52.40;;;;;;4940718;29;20447;-95
2021/09/12 16:55:50;;;;;;;9.32;7.70;;;23.20;52.30;;;;;;4940316;29;20450;-95
2021/09/12 16:58:16;;;;;;;10.13;6.88;;;23.10;52.80;;;;;;4939987;29;20130;-94
2021/09/12 17:00:42;;;;;;;7.68;6.88;;;23.00;52.40;;;;;;4940021;29;20034;-94
2021/09/12 17:03:08;;;;;;;8.02;6.60;;;22.90;52.80;;;;;;4940845;29;20492;-95
2021/09/12 17:05:34;;;;;;;8.57;7.15;;;22.80;53.30;;;;;;4940740;29;20027;-94
2021/09/12 17:07:59;;;;;;;11.38;8.88;;;22.70;53.70;;;;;;4941186;29;20123;-94
2021/09/12 17:10:25;;;;;;;8.65;7.85;;;22.60;54.40;;;;;;4940876;29;20024;-94
2021/09/12 17:12:51;;;;;;;10.70;7.88;;;22.50;54.80;;;;;;4957433;29;20031;-94
2021/09/12 17:15:19;;;;;;;15.65;8.73;;;22.40;55.30;;;;;;4939338;29;20027;-95
2021/09/12 17:17:50;;;;;;;11.80;8.10;;;22.30;55.90;;;;;;4939908;29;20028;-95
2021/09/12 17:20:16;;;;;;;15.50;10.73;;;22.20;56.20;;;;;;4939860;29;20031;-95
2021/09/12 17:22:42;;;;;;;10.43;8.77;;;22.10;56.70;;;;;;4939844;29;20398;-95
2021/09/12 17:25:11;;;;;;;10.55;9.48;;;22.00;57.10;;;;;;4939982;29;20027;-95
2021/09/12 17:27:37;;;;;;;12.93;10.20;;;21.90;57.50;;;;;;4939815;29;20126;-94
2021/09/12 17:30:04;;;;;;;13.43;9.75;;;21.90;58.00;;;;;;4940216;29;20495;-95
2021/09/12 17:32:30;;;;;;;15.13;9.93;;;21.80;58.30;;;;;;4956775;29;20054;-94
2021/09/12 17:34:56;;;;;;;11.88;8.85;;;21.70;58.70;;;;;;4939512;29;20059;-94
2021/09/12 17:37:22;;;;;;;14.25;10.48;;;21.60;59.10;;;;;;4939648;29;20039;-94
2021/09/12 17:39:48;;;;;;;14.20;10.10;;;21.60;59.60;;;;;;4939823;29;20394;-95
2021/09/12 17:42:14;;;;;;;11.75;9.77;;;21.50;59.90;;;;;;4939604;29;20027;-95
2021/09/12 17:44:39;;;;;;;10.32;9.00;;;21.40;60.30;;;;;;4939780;28;20031;-94
2021/09/12 17:47:05;;;;;;;11.50;9.48;;;21.40;59.80;;;;;;4939573;29;20035;-95
2021/09/12 17:49:32;;;;;;;12.43;9.93;;;21.30;59.50;;;;;;4939276;29;20391;-95
2021/09/12 17:51:57;;;;;;;11.63;9.13;;;21.40;58.90;;;;;;4940006;29;20027;-94
2021/09/12 17:54:26;;;;;;;12.23;10.93;;;21.30;59.10;;;;;;4939146;29;20030;-94
2021/09/12 17:56:51;;;;;;;15.15;11.48;;;21.30;58.80;;;;;;4939326;29;20031;-95
2021/09/12 17:59:18;;;;;;;13.38;10.50;;;21.30;58.80;;;;;;4939256;29;20038;-95
2021/09/12 18:01:44;;;;;;;16.58;11.95;;;21.30;58.50;;;;;;4939005;29;20024;-94
2021/09/12 18:04:10;;;;;;;16.17;11.48;;;21.30;58.90;;;;;;4939276;29;20090;-95
2021/09/12 18:06:36;;;;;;;13.68;12.00;;;21.30;59.20;;;;;;4939271;29;20039;-94
2021/09/12 18:09:02;;;;;;;13.52;11.38;;;21.30;59.40;;;;;;4939541;29;20118;-94
2021/09/12 18:11:27;;;;;;;13.13;10.40;;;21.20;59.40;;;;;;4956126;29;20059;-94
2021/09/12 18:13:53;;;;;;;13.13;11.23;;;21.10;59.70;;;;;;4939257;29;20455;-94
2021/09/12 18:16:19;;;;;;;13.40;11.13;;;21.10;60.10;;;;;;4939195;29;20035;-94
2021/09/12 18:18:44;;;;;;;16.00;11.02;;;21.00;60.40;;;;;;4939641;29;20036;-94
2021/09/12 18:21:10;;;;;;;13.20;10.38;;;20.90;60.70;;;;;;4956155;29;20460;-94
2021/09/12 18:23:36;;;;;;;12.68;10.13;;;20.90;60.40;;;;;;4939158;29;20035;-94
2021/09/12 18:26:01;;;;;;;15.05;11.57;;;20.90;60.70;;;;;;4938741;28;20081;-94
2021/09/12 18:28:27;;;;;;;15.23;10.98;;;20.90;60.70;;;;;;4942615;29;20038;-95
2021/09/12 18:30:53;;;;;;;11.38;9.40;;;20.90;60.80;;;;;;4942494;29;20478;-94
2021/09/12 18:33:18;;;;;;;13.30;10.23;;;20.90;60.70;;;;;;4942432;29;20031;-95
2021/09/12 18:35:49;;;;;;;13.27;11.05;;;20.80;60.90;;;;;;4942031;29;20078;-95
2021/09/12 18:38:18;;;;;;;18.30;12.05;;;20.90;61.10;;;;;;4942844;29;20042;-94
2021/09/12 18:40:45;;;;;;;14.38;11.45;;;20.80;61.40;;;;;;4942100;29;20031;-95
2021/09/12 18:43:11;;;;;;;14.93;11.68;;;20.80;61.60;;;;;;4941909;29;20114;-95
2021/09/12 18:45:36;;;;;;;13.35;11.75;;;20.80;61.90;;;;;;4942608;29;20126;-94
2021/09/12 18:48:02;;;;;;;13.48;10.25;;;20.70;62.20;;;;;;4942444;29;20027;-94
2021/09/12 18:50:28;;;;;;;13.07;10.57;;;20.60;62.50;;;;;;4942201;29;20027;-94
2021/09/12 18:52:54;;;;;;;15.85;10.57;;;20.60;62.90;;;;;;4959133;29;20098;-94
2021/09/12 18:55:20;;;;;;;13.25;10.48;;;20.50;63.30;;;;;;4942578;29;20090;-94
2021/09/12 18:57:46;;;;;;;13.38;10.30;;;20.40;63.50;;;;;;4941699;29;20034;-94
2021/09/12 19:00:12;;;;;;;14.05;10.07;;;20.40;63.90;;;;;;4942035;29;20031;-95
2021/09/12 19:02:39;;;;;;;13.25;10.65;;;20.30;64.20;;;;;;4942186;29;20110;-94
2021/09/12 19:05:09;;;;;;;13.50;11.05;;;20.20;64.60;;;;;;4942658;29;20455;-95
2021/09/12 19:07:36;;;;;;;13.85;10.00;;;20.10;64.90;;;;;;4942397;29;20031;-94
2021/09/12 19:10:02;;;;;;;11.85;10.63;;;20.10;65.20;;;;;;4942218;29;20024;-95
2021/09/12 19:12:28;;;;;;;13.07;11.38;;;20.10;65.50;;;;;;4941851;29;20028;-94
2021/09/12 19:14:54;;;;;;;13.38;10.15;;;20.00;65.70;;;;;;4959080;29;20166;-94
2021/09/12 19:17:19;;;;;;;12.38;9.68;;;19.90;66.00;;;;;;4958872;29;20485;-94
2021/09/12 19:19:46;;;;;;;14.55;9.80;;;19.90;66.20;;;;;;4941768;29;20481;-94
2021/09/12 19:22:12;;;;;;;11.27;9.93;;;19.80;66.40;;;;;;4941450;29;20031;-94
2021/09/12 19:24:38;;;;;;;13.60;10.50;;;19.80;66.80;;;;;;4958706;29;20062;-95
2021/09/12 19:27:04;;;;;;;12.25;9.85;;;19.70;67.20;;;;;;4942018;29;20027;-93
2021/09/12 19:29:30;;;;;;;13.57;9.98;;;19.70;67.60;;;;;;4941765;29;20074;-93
2021/09/12 19:31:56;;;;;;;12.23;9.50;;;19.60;67.90;;;;;;4941557;29;20027;-93
2021/09/12 19:34:22;;;;;;;10.25;8.77;;;19.60;68.10;;;;;;4941461;29;20141;-94
2021/09/12 19:36:48;;;;;;;12.77;8.75;;;19.50;67.70;;;;;;4941906;29;20477;-93
2021/09/12 19:39:13;;;;;;;13.13;9.95;;;19.50;68.10;;;;;;4958641;28;20051;-94
2021/09/12 19:41:39;;;;;;;13.13;10.98;;;19.40;68.30;;;;;;4945109;29;20027;-95
2021/09/12 19:44:05;;;;;;;14.00;10.02;;;19.50;68.70;;;;;;4947344;29;20447;-94
2021/09/12 19:46:31;;;;;;;13.52;9.43;;;19.50;68.70;;;;;;4948956;29;20039;-94
2021/09/12 19:48:57;;;;;;;14.35;9.70;;;19.40;68.80;;;;;;4951577;29;20034;-94
2021/09/12 19:51:24;;;;;;;14.57;9.60;;;19.40;69.10;;;;;;4948624;29;20031;-94
2021/09/12 19:53:49;;;;;;;12.02;9.57;;;19.40;69.30;;;;;;4943080;29;20115;-94
2021/09/12 19:56:15;;;;;;;10.13;9.07;;;19.30;69.30;;;;;;4941348;29;20113;-94
2021/09/12 19:58:41;;;;;;;10.73;9.60;;;19.30;69.40;;;;;;4956875;29;20475;-94
2021/09/12 20:01:12;;;;;;;12.95;10.18;;;19.20;69.50;;;;;;4958107;29;20034;-94
2021/09/12 20:03:38;;;;;;;11.60;9.70;;;19.20;69.70;;;;;;4940855;29;20035;-94
2021/09/12 20:06:04;;;;;;;9.27;8.13;;;19.20;69.80;;;;;;4941445;29;20058;-94
2021/09/12 20:08:29;;;;;;;10.02;8.95;;;19.20;69.50;;;;;;4941206;29;20027;-94
2021/09/12 20:10:55;;;;;;;15.30;8.90;;;19.10;69.80;;;;;;4940635;29;20035;-94
2021/09/12 20:13:21;;;;;;;15.63;10.10;;;19.10;70.20;;;;;;4940531;29;20471;-93
2021/09/12 20:15:48;;;;;;;12.68;9.95;;;19.00;70.40;;;;;;4940521;29;20023;-94
2021/09/12 20:18:15;;;;;;;15.02;10.63;;;19.00;70.70;;;;;;4941183;29;20069;-94
2021/09/12 20:20:41;;;;;;;10.80;9.52;;;18.90;71.00;;;;;;4940998;29;20049;-93
2021/09/12 20:23:07;;;;;;;12.57;9.77;;;18.90;71.50;;;;;;4940695;29;20030;-94
2021/09/12 20:25:33;;;;;;;11.63;10.25;;;18.80;71.70;;;;;;4940207;29;20035;-94
2021/09/12 20:27:59;;;;;;;16.65;10.05;;;18.70;72.00;;;;;;4957129;29;20038;-93
2021/09/12 20:30:26;;;;;;;14.00;10.70;;;18.70;72.20;;;;;;4940995;29;20031;-93
2021/09/12 20:32:52;;;;;;;14.60;10.43;;;18.70;72.40;;;;;;4940502;29;20118;-94
2021/09/12 20:35:18;;;;;;;13.90;9.73;;;18.60;72.20;;;;;;4940235;29;20055;-94
2021/09/12 20:37:44;;;;;;;12.35;9.77;;;18.60;72.30;;;;;;4940178;29;20033;-94
2021/09/12 20:40:10;;;;;;;12.23;10.13;;;18.50;72.60;;;;;;4957495;29;20091;-94
2021/09/12 20:42:37;;;;;;;15.30;9.60;;;18.50;72.70;;;;;;4940018;29;20027;-94
2021/09/12 20:45:05;;;;;;;10.88;8.55;;;18.40;73.00;;;;;;4956939;28;20438;-94
2021/09/12 20:47:30;;;;;;;11.18;9.18;;;18.40;73.10;;;;;;4940126;29;20077;-94
2021/09/12 20:49:56;;;;;;;12.32;9.18;;;18.40;73.50;;;;;;4939430;29;20058;-94
2021/09/12 20:52:22;;;;;;;12.57;9.45;;;18.40;73.80;;;;;;4940924;29;20038;-94
2021/09/12 20:54:48;;;;;;;11.85;9.88;;;18.30;73.90;;;;;;4958351;29;20028;-93
2021/09/12 20:57:13;;;;;;;12.65;8.70;;;18.30;74.20;;;;;;4957155;29;20027;-93
2021/09/12 20:59:39;;;;;;;14.40;9.75;;;18.20;74.40;;;;;;4941180;29;20032;-93
2021/09/12 21:02:05;;;;;;;18.88;9.90;;;18.20;74.70;;;;;;4940278;29;20534;-93
2021/09/12 21:04:31;;;;;;;14.68;9.63;;;18.10;74.80;;;;;;4940175;29;20024;-94
2021/09/12 21:06:56;;;;;;;13.65;9.73;;;18.10;75.10;;;;;;4939590;29;20513;-94
2021/09/12 21:09:22;;;;;;;13.52;9.75;;;18.00;75.30;;;;;;4956781;29;20031;-94
2021/09/12 21:11:48;;;;;;;15.13;10.38;;;18.00;75.60;;;;;;4940288;29;20461;-93
2021/09/12 21:14:14;;;;;;;13.40;10.27;;;18.00;75.90;;;;;;4939425;29;20031;-94
2021/09/12 21:16:39;;;;;;;15.30;11.57;;;17.90;76.10;;;;;;4939835;29;20114;-94
2021/09/12 21:19:05;;;;;;;15.10;11.25;;;17.90;76.40;;;;;;4956656;29;20027;-94
2021/09/12 21:21:31;;;;;;;14.55;11.43;;;17.90;76.70;;;;;;4939472;29;20470;-94
2021/09/12 21:23:57;;;;;;;14.27;11.27;;;17.80;77.00;;;;;;4956424;29;20074;-94
2021/09/12 21:26:22;;;;;;;17.40;11.73;;;17.80;77.30;;;;;;4939378;29;20031;-94
2021/09/12 21:28:48;;;;;;;15.52;11.00;;;17.70;77.30;;;;;;4956250;29;20106;-93
2021/09/12 21:31:14;;;;;;;16.42;11.70;;;17.70;77.60;;;;;;4939720;29;20455;-94
2021/09/12 21:33:40;;;;;;;15.77;11.43;;;17.70;77.70;;;;;;4939191;29;20031;-94
2021/09/12 21:36:05;;;;;;;17.88;12.88;;;17.60;77.70;;;;;;4939666;29;20095;-93
2021/09/12 21:38:31;;;;;;;14.88;11.65;;;17.60;77.60;;;;;;4939487;29;20032;-93
2021/09/12 21:40:57;;;;;;;12.13;10.00;;;17.60;77.70;;;;;;4939081;29;20455;-93
2021/09/12 21:43:22;;;;;;;13.23;10.68;;;17.60;77.50;;;;;;4939431;29;20036;-94
2021/09/12 21:45:49;;;;;;;15.57;11.80;;;17.70;77.60;;;;;;4939310;29;20030;-94
2021/09/12 21:48:15;;;;;;;13.07;10.18;;;17.70;77.50;;;;;;4939468;29;20046;-94
2021/09/12 21:50:41;;;;;;;14.30;10.02;;;17.70;77.30;;;;;;4939571;29;20046;-94
2021/09/12 21:53:07;;;;;;;12.45;9.90;;;17.70;77.10;;;;;;4956062;29;20459;-93
2021/09/12 21:55:32;;;;;;;14.48;10.65;;;17.80;77.10;;;;;;4931508;29;20038;-94
2021/09/12 21:57:58;;;;;;;10.43;8.98;;;17.70;77.10;;;;;;4938985;29;20037;-94
2021/09/12 22:00:30;;;;;;;12.63;9.88;;;17.80;77.10;;;;;;4939691;29;20095;-94
2021/09/12 22:02:56;;;;;;;11.25;8.63;;;17.80;77.00;;;;;;4942031;29;20034;-94
2021/09/12 22:05:22;;;;;;;14.20;10.88;;;17.80;77.00;;;;;;4942943;29;20035;-93
2021/09/12 22:07:47;;;;;;;14.32;9.77;;;17.80;77.20;;;;;;4942917;29;20042;-93
2021/09/12 22:10:13;;;;;;;14.00;9.68;;;17.80;77.20;;;;;;4942885;29;20390;-94
2021/09/12 22:12:39;;;;;;;14.38;10.48;;;17.80;77.30;;;;;;4942523;29;20023;-93
2021/09/12 22:15:06;;;;;;;14.27;9.90;;;17.80;77.40;;;;;;4942708;29;20034;-94
2021/09/12 22:17:32;;;;;;;12.27;10.43;;;17.80;77.30;;;;;;4942689;29;20063;-93
2021/09/12 22:19:57;;;;;;;14.15;10.95;;;17.80;77.30;;;;;;4942801;29;20027;-94
2021/09/12 22:22:24;;;;;;;12.63;10.13;;;17.80;77.40;;;;;;4942660;29;20031;-94
2021/09/12 22:24:50;;;;;;;13.25;9.02;;;17.80;77.60;;;;;;4942573;29;20106;-93
2021/09/12 22:27:16;;;;;;;13.98;10.60;;;17.70;77.70;;;;;;4942886;29;20053;-94
2021/09/12 22:29:42;;;;;;;13.65;11.27;;;17.70;77.80;;;;;;4959664;29;20059;-93
2021/09/12 22:32:10;;;;;;;11.18;9.68;;;17.70;77.90;;;;;;4942621;29;20086;-93
2021/09/12 22:34:36;;;;;;;11.63;9.48;;;17.70;78.10;;;;;;4942426;29;20520;-94
2021/09/12 22:37:03;;;;;;;13.65;10.07;;;17.60;78.20;;;;;;4959340;29;20113;-94
2021/09/12 22:39:29;;;;;;;14.10;10.73;;;17.60;78.30;;;;;;4942049;29;20035;-93
2021/09/12 22:41:54;;;;;;;11.95;9.45;;;17.60;78.60;;;;;;4942228;29;20110;-94
2021/09/12 22:44:20;;;;;;;13.90;10.07;;;17.60;78.60;;;;;;4942955;29;20051;-94
2021/09/12 22:46:46;;;;;;;17.33;10.07;;;17.50;78.90;;;;;;4942124;29;20099;-93
2021/09/12 22:49:12;;;;;;;13.90;11.00;;;17.50;79.10;;;;;;4942256;29;20035;-94
2021/09/12 22:51:37;;;;;;;13.43;10.18;;;17.40;79.30;;;;;;4942006;29;20407;-94
2021/09/12 22:54:03;;;;;;;14.80;12.10;;;17.40;79.40;;;;;;4958933;29;20042;-93
2021/09/12 22:56:29;;;;;;;18.60;12.75;;;17.40;80.30;;;;;;4942048;29;20039;-93
2021/09/12 22:58:55;;;;;;;17.80;13.43;;;17.40;80.70;;;;;;4941962;29;20027;-93
2021/09/12 23:01:21;;;;;;;17.05;12.73;;;17.40;80.90;;;;;;4941923;29;20123;-94
2021/09/12 23:03:46;;;;;;;16.63;12.38;;;17.40;81.20;;;;;;4941947;29;20150;-93
2021/09/12 23:06:12;;;;;;;15.85;13.13;;;17.50;81.10;;;;;;4941895;29;20032;-93
2021/09/12 23:08:38;;;;;;;16.15;12.55;;;17.50;81.20;;;;;;4941713;29;20529;-93
2021/09/12 23:11:04;;;;;;;15.25;12.68;;;17.50;81.20;;;;;;4958822;29;20110;-94
2021/09/12 23:13:30;;;;;;;14.85;11.80;;;17.50;81.40;;;;;;4940986;29;20390;-93
2021/09/12 23:15:56;;;;;;;16.35;12.80;;;17.50;81.60;;;;;;4941601;29;20023;-94
2021/09/12 23:18:22;;;;;;;16.10;11.88;;;17.40;82.20;;;;;;4941566;29;20031;-93
2021/09/12 23:20:47;;;;;;;15.65;10.98;;;17.40;81.80;;;;;;4941560;29;20600;-93
2021/09/12 23:23:13;;;;;;;14.80;11.75;;;17.40;81.80;;;;;;4941547;29;20058;-93
2021/09/12 23:25:39;;;;;;;15.57;12.57;;;17.30;82.10;;;;;;4941705;29;20027;-93
2021/09/12 23:28:05;;;;;;;16.83;12.93;;;17.30;82.20;;;;;;4942023;29;20538;-93
2021/09/12 23:30:31;;;;;;;18.10;14.13;;;17.20;82.50;;;;;;4941456;29;20056;-93
2021/09/12 23:32:57;;;;;;;18.23;14.05;;;17.20;82.80;;;;;;4941351;29;20038;-93
2021/09/12 23:35:22;;;;;;;23.55;14.25;;;17.30;83.20;;;;;;4959062;29;20060;-93
2021/09/12 23:37:48;;;;;;;16.65;13.60;;;17.20;83.00;;;;;;4958450;29;20038;-93
2021/09/12 23:40:14;;;;;;;16.63;13.48;;;17.20;83.00;;;;;;4942647;29;20039;-93
2021/09/12 23:42:40;;;;;;;16.42;12.95;;;17.20;83.00;;;;;;4944226;29;20050;-93
2021/09/12 23:45:07;;;;;;;16.13;13.27;;;17.10;82.80;;;;;;4946265;29;20463;-93
2021/09/12 23:47:33;;;;;;;14.18;11.88;;;17.10;83.00;;;;;;4946165;29;20031;-93
2021/09/12 23:49:59;;;;;;;13.90;10.98;;;17.00;83.20;;;;;;4952174;29;20099;-93
2021/09/12 23:52:25;;;;;;;14.50;10.68;;;17.00;83.40;;;;;;4944057;29;20486;-93
2021/09/12 23:54:51;;;;;;;14.95;11.25;;;16.90;83.60;;;;;;4943151;29;20118;-93
2021/09/12 23:57:16;;;;;;;12.43;10.27;;;16.80;83.60;;;;;;4961632;29;20068;-93
2021/09/12 23:59:42;;;;;;;11.98;9.32;;;16.80;83.90;;;;;;4963531;29;20042;-94
